Terminal Aerodrome Forecast
Issued by NWS Corpus Christi, TX

Home | Current Version | Previous Version | Text Only | Print | Product List | Glossary On
Versions: 1 2 3 4 5 6 7 8 9 10 11 12 13 14 15
571
FTUS44 KCRP 251124
TAFVCT
TAF
KVCT 251124Z 2512/2612 11004KT P6SM VCSH SCT025
      TEMPO 2512/2514 VRB15G25KT 4SM -TSRA BR BKN025CB
     FM251400 13008KT P6SM VCTS BKN035CB
      TEMPO 2514/2518 VRB15G25KT 4SM TSRA BR BKN035CB
     FM260200 09004KT P6SM SCT025
     FM260800 06004KT P6SM VCSH FEW025=

USA.gov is the U.S. government's official web portal to all federal, state and local government web resources and services.